KOKK/OKK METAR and TAF weather

Enter ICAO airport designator
Station Type Date Time Source
KOKK METAR 2021/09/20 04:56 UTC NOAA

KOKK 200456Z AUTO 15005KT 10SM CLR 22/19 A3007 RMK AO2 SLP179 T02220194 PNO $


Station Type Date Time Source
KOKK Decoded METAR 2021/09/20 04:56 UTC NOAA

Kokomo, Kokomo Municipal Airport, IN, United States (KOKK) 40-32N 086-04W
Sep 20, 2021 - 12:56 AM EDT / 2021.09.20 0456 UTC
Wind: from the SSE (150 degrees) at 6 MPH (5 KT):0
Visibility: 10 mile(s):0
Sky conditions: clear
Temperature: 72.0 F (22.2 C)
Dew Point: 66.9 F (19.4 C)
Relative Humidity: 84%
Pressure (altimeter): 30.07 in. Hg (1018 hPa)
ob: KOKK 200456Z AUTO 15005KT 10SM CLR 22/19 A3007 RMK AO2 SLP179 T02220194 PNO
cycle: 5

Station Type Date Time Source
KOKK TAF UTC NOAA

Error!

Example: see airport list